createdAt,value
2023-05-19T00:02:07.553Z,58.80
2023-05-19T00:04:38.765Z,58.80
2023-05-19T00:07:13.013Z,58.70
2023-05-19T00:09:43.457Z,58.70
2023-05-19T00:12:14.499Z,58.70
2023-05-19T00:14:45.111Z,58.70
2023-05-19T00:17:16.094Z,58.70
2023-05-19T00:19:46.819Z,58.60
2023-05-19T00:22:18.233Z,58.50
2023-05-19T00:24:48.601Z,58.60
2023-05-19T00:27:18.857Z,58.50
2023-05-19T00:29:49.092Z,58.50
2023-05-19T00:32:19.392Z,58.50
2023-05-19T00:34:50.669Z,58.40
2023-05-19T00:37:21.104Z,58.40
2023-05-19T00:39:51.620Z,58.50
2023-05-19T00:42:23.212Z,58.50
2023-05-19T00:44:53.953Z,58.40
2023-05-19T00:47:24.243Z,58.60
2023-05-19T00:49:54.617Z,58.60
2023-05-19T00:52:25.003Z,58.60
2023-05-19T00:54:56.045Z,58.60
2023-05-19T00:57:27.704Z,58.40
2023-05-19T00:59:58.248Z,58.20
2023-05-19T01:02:31.334Z,58.30
2023-05-19T01:05:02.654Z,58.30
2023-05-19T01:07:33.004Z,58.30
2023-05-19T01:10:03.792Z,58.50
2023-05-19T01:12:34.179Z,58.40
2023-05-19T01:15:08.414Z,58.30
2023-05-19T01:18:09.070Z,59.10
2023-05-19T01:20:48.462Z,58.20
2023-05-19T01:23:41.793Z,58.50
2023-05-19T01:26:43.385Z,58.40
2023-05-19T01:30:03.901Z,58.20
2023-05-19T01:32:35.894Z,58.50
2023-05-19T01:35:07.793Z,58.40
2023-05-19T01:37:40.983Z,58.40
2023-05-19T01:40:12.092Z,58.40
2023-05-19T01:42:43.649Z,58.40
2023-05-19T01:45:15.282Z,58.40
2023-05-19T01:47:46.756Z,58.40
2023-05-19T01:50:17.171Z,58.30
2023-05-19T01:52:48.247Z,58.30
2023-05-19T01:55:18.627Z,58.30
2023-05-19T01:58:13.555Z,58.00
2023-05-19T02:00:53.076Z,58.10
2023-05-19T02:03:58.707Z,58.00
2023-05-19T02:06:47.030Z,58.00
2023-05-19T02:09:41.473Z,58.00
2023-05-19T02:12:17.799Z,58.10
2023-05-19T02:14:52.931Z,58.00
2023-05-19T02:17:25.584Z,58.00
2023-05-19T02:19:55.977Z,58.00
2023-05-19T02:22:26.209Z,58.00
2023-05-19T02:24:58.464Z,57.90
2023-05-19T02:27:28.889Z,58.40
2023-05-19T02:29:59.463Z,57.80
2023-05-19T02:32:29.792Z,57.80
2023-05-19T02:35:00.070Z,57.80
2023-05-19T02:37:30.946Z,57.80
2023-05-19T02:40:01.356Z,57.70
2023-05-19T02:42:32.159Z,57.80
2023-05-19T02:45:03.506Z,57.80
2023-05-19T02:47:35.452Z,58.10
2023-05-19T02:50:08.306Z,58.00
2023-05-19T02:52:38.578Z,58.20
2023-05-19T02:55:09.285Z,58.20
2023-05-19T02:57:39.563Z,57.80
2023-05-19T03:00:10.610Z,58.00
2023-05-19T03:02:41.460Z,57.50
2023-05-19T03:05:12.410Z,56.80
2023-05-19T03:07:43.188Z,56.50
2023-05-19T03:10:13.607Z,55.80
2023-05-19T03:13:02.372Z,55.30
2023-05-19T03:15:52.739Z,55.50
2023-05-19T03:18:41.583Z,55.20
2023-05-19T03:21:12.376Z,55.40
2023-05-19T03:23:42.773Z,54.80
2023-05-19T03:26:13.925Z,54.80
2023-05-19T03:28:44.240Z,55.60
2023-05-19T03:31:15.150Z,54.80
2023-05-19T03:33:45.412Z,54.60
2023-05-19T03:36:16.169Z,54.40
2023-05-19T03:38:46.490Z,53.90
2023-05-19T03:41:16.835Z,53.70
2023-05-19T03:43:47.839Z,53.80
2023-05-19T03:46:18.336Z,54.00
2023-05-19T03:48:48.684Z,54.00
2023-05-19T03:51:19.431Z,53.40
2023-05-19T03:53:50.457Z,53.50
2023-05-19T03:56:22.427Z,53.60
2023-05-19T03:58:52.743Z,53.10
2023-05-19T04:01:23.043Z,53.20
2023-05-19T04:03:53.266Z,53.50
2023-05-19T04:06:23.737Z,53.50
2023-05-19T04:08:54.094Z,53.40
2023-05-19T04:11:24.385Z,53.70
2023-05-19T04:13:54.870Z,53.70
2023-05-19T04:16:25.339Z,53.50
2023-05-19T04:18:55.816Z,53.90
2023-05-19T04:21:26.198Z,53.60
2023-05-19T04:23:56.617Z,52.90
2023-05-19T04:26:28.443Z,52.60
2023-05-19T04:28:59.010Z,52.60
2023-05-19T04:31:30.283Z,53.00
2023-05-19T04:34:03.396Z,52.50
2023-05-19T04:36:35.577Z,53.10
2023-05-19T04:39:11.311Z,53.40
2023-05-19T04:41:42.069Z,53.70
2023-05-19T04:44:12.793Z,52.50
2023-05-19T04:46:44.384Z,52.70
2023-05-19T04:49:15.724Z,53.10
2023-05-19T04:51:47.745Z,53.10
2023-05-19T04:54:18.429Z,52.50
2023-05-19T04:56:48.960Z,52.80
2023-05-19T04:59:19.706Z,52.40
2023-05-19T05:01:50.064Z,52.50
2023-05-19T05:04:20.456Z,52.40
2023-05-19T05:06:51.446Z,52.30
2023-05-19T05:09:22.292Z,52.50
2023-05-19T05:11:53.271Z,51.50
2023-05-19T05:14:24.052Z,51.70
2023-05-19T05:16:54.700Z,51.30
2023-05-19T05:19:25.335Z,51.20
2023-05-19T05:21:55.969Z,51.50
2023-05-19T05:24:26.557Z,52.50
2023-05-19T05:26:57.096Z,52.30
2023-05-19T05:29:27.628Z,52.00
2023-05-19T05:31:57.949Z,52.30
2023-05-19T05:34:28.526Z,51.50
2023-05-19T05:36:58.731Z,51.20
2023-05-19T05:39:29.776Z,51.30
2023-05-19T05:42:00.081Z,51.60
2023-05-19T05:44:30.333Z,51.60
2023-05-19T05:47:00.715Z,51.70
2023-05-19T05:49:31.366Z,51.80
2023-05-19T05:52:06.089Z,51.90
2023-05-19T05:54:37.491Z,52.10
2023-05-19T05:57:08.151Z,52.20
2023-05-19T05:59:38.421Z,52.30
2023-05-19T06:02:09.152Z,52.40
2023-05-19T06:04:39.477Z,52.50
2023-05-19T06:07:10.076Z,52.70
2023-05-19T06:09:40.466Z,52.80
2023-05-19T06:12:29.434Z,52.90
2023-05-19T06:15:18.803Z,53.00
2023-05-19T06:18:07.935Z,53.10
2023-05-19T06:20:38.514Z,53.20
2023-05-19T06:23:08.770Z,53.30
2023-05-19T06:25:39.331Z,53.30
2023-05-19T06:28:09.704Z,53.40
2023-05-19T06:30:40.087Z,53.60
2023-05-19T06:33:10.422Z,53.70
2023-05-19T06:35:41.464Z,53.90
2023-05-19T06:38:12.906Z,54.00
2023-05-19T06:40:43.766Z,54.10
2023-05-19T06:43:18.826Z,54.30
2023-05-19T06:45:49.195Z,54.30
2023-05-19T06:48:19.455Z,54.40
2023-05-19T06:50:49.865Z,54.50
2023-05-19T06:53:22.685Z,54.60
2023-05-19T06:55:59.509Z,54.80
2023-05-19T06:58:30.688Z,54.70
2023-05-19T07:01:01.269Z,54.80
2023-05-19T07:03:32.667Z,54.80
2023-05-19T07:06:04.034Z,54.90
2023-05-19T07:08:36.161Z,54.90
2023-05-19T07:11:25.347Z,55.00
2023-05-19T07:14:14.301Z,55.10
2023-05-19T07:17:03.450Z,55.00
2023-05-19T07:19:33.810Z,55.10
2023-05-19T07:22:04.313Z,55.10
2023-05-19T07:24:34.685Z,55.10
2023-05-19T07:27:05.240Z,55.10
2023-05-19T07:29:35.514Z,55.20
2023-05-19T07:32:06.084Z,55.20
2023-05-19T07:34:36.367Z,55.10
2023-05-19T07:37:06.869Z,55.20
2023-05-19T07:39:38.010Z,55.20
2023-05-19T07:42:27.260Z,55.20
2023-05-19T07:45:00.200Z,55.20
2023-05-19T07:47:31.209Z,55.30
2023-05-19T07:50:01.782Z,55.20
2023-05-19T07:52:32.424Z,55.30
2023-05-19T07:55:02.829Z,55.20
2023-05-19T07:57:34.100Z,55.30
2023-05-19T08:00:04.449Z,55.30
2023-05-19T08:02:34.801Z,55.30
2023-05-19T08:05:05.249Z,55.30
2023-05-19T08:07:36.356Z,55.40
2023-05-19T08:10:07.383Z,55.40
2023-05-19T08:12:37.729Z,55.50
2023-05-19T08:15:09.109Z,55.60
2023-05-19T08:17:39.660Z,55.60
2023-05-19T08:20:11.856Z,55.60
2023-05-19T08:22:42.283Z,55.60
2023-05-19T08:25:13.369Z,55.60
2023-05-19T08:27:43.690Z,55.50
2023-05-19T08:30:14.540Z,55.50
2023-05-19T08:32:45.068Z,55.70
2023-05-19T08:35:15.550Z,55.80
2023-05-19T08:37:45.916Z,56.00
2023-05-19T08:40:20.200Z,56.00
2023-05-19T08:42:50.869Z,56.10
2023-05-19T08:45:21.310Z,56.20
2023-05-19T08:47:53.362Z,56.10
2023-05-19T08:50:32.345Z,56.80
2023-05-19T08:53:34.067Z,56.10
2023-05-19T08:56:12.141Z,56.30
2023-05-19T08:58:45.905Z,56.20
2023-05-19T09:01:18.983Z,56.20
2023-05-19T09:03:51.692Z,56.20
2023-05-19T09:06:23.266Z,56.30
2023-05-19T09:08:54.168Z,56.40
2023-05-19T09:11:25.765Z,56.40
2023-05-19T09:13:57.245Z,56.50
2023-05-19T09:16:30.107Z,56.50
2023-05-19T09:19:03.768Z,56.60
2023-05-19T09:21:38.564Z,56.60
2023-05-19T09:24:10.148Z,56.80
2023-05-19T09:26:45.093Z,56.60
2023-05-19T09:29:17.676Z,56.70
2023-05-19T09:31:52.868Z,56.70
2023-05-19T09:34:28.662Z,56.80
2023-05-19T09:37:01.471Z,56.80
2023-05-19T09:39:33.181Z,56.80
2023-05-19T09:42:08.548Z,56.80
2023-05-19T09:44:39.587Z,56.90
2023-05-19T09:47:12.834Z,56.80
2023-05-19T09:49:49.720Z,56.90
2023-05-19T09:52:21.285Z,57.00
2023-05-19T09:54:53.989Z,57.00
2023-05-19T09:57:30.054Z,57.00
2023-05-19T10:00:02.984Z,57.10
2023-05-19T10:02:34.914Z,57.10
2023-05-19T10:05:07.797Z,57.10
2023-05-19T10:07:39.753Z,57.20
2023-05-19T10:10:15.951Z,57.10
2023-05-19T10:12:47.011Z,57.20
2023-05-19T10:15:22.111Z,57.20
2023-05-19T10:17:54.361Z,57.30
2023-05-19T10:20:24.734Z,57.30
2023-05-19T10:22:55.054Z,57.40
2023-05-19T10:25:25.617Z,57.30
2023-05-19T10:28:10.155Z,57.40
2023-05-19T10:30:49.864Z,57.40
2023-05-19T10:33:23.839Z,57.40
2023-05-19T10:36:12.789Z,57.40
2023-05-19T10:39:02.932Z,58.00
2023-05-19T10:41:36.452Z,57.30
2023-05-19T10:44:33.231Z,57.50
2023-05-19T10:47:03.917Z,57.30
2023-05-19T10:49:38.628Z,57.50
2023-05-19T10:52:24.446Z,57.60
2023-05-19T10:54:56.400Z,57.50
2023-05-19T10:57:32.467Z,57.60
2023-05-19T11:00:13.276Z,57.60
2023-05-19T11:02:46.948Z,57.60
2023-05-19T11:05:20.213Z,57.60
2023-05-19T11:08:06.379Z,57.60
2023-05-19T11:10:36.798Z,57.50
2023-05-19T11:13:08.509Z,57.60
2023-05-19T11:15:39.310Z,57.50
2023-05-19T11:18:09.877Z,57.60
2023-05-19T11:20:42.461Z,57.70
2023-05-19T11:23:23.518Z,57.60
2023-05-19T11:25:57.508Z,57.60
2023-05-19T11:58:31.404Z,59.30
2023-05-19T12:01:07.034Z,57.60
2023-05-19T12:03:37.543Z,57.90
2023-05-19T12:06:10.068Z,58.00
2023-05-19T12:08:40.609Z,58.00
2023-05-19T12:11:10.961Z,58.10
2023-05-19T12:13:42.524Z,58.10
2023-05-19T12:16:13.193Z,58.10
2023-05-19T12:18:43.731Z,58.10
2023-05-19T12:21:14.300Z,58.10
2023-05-19T12:23:45.122Z,58.00
2023-05-19T12:26:15.878Z,58.00
2023-05-19T12:28:48.353Z,58.00
2023-05-19T12:31:19.051Z,58.00
2023-05-19T12:33:54.933Z,58.00
2023-05-19T12:36:27.110Z,57.90
2023-05-19T12:38:58.296Z,58.00
2023-05-19T12:41:31.356Z,58.10
2023-05-19T12:44:01.654Z,58.10
2023-05-19T12:46:35.886Z,58.20
2023-05-19T12:49:06.800Z,58.10
2023-05-19T12:51:38.870Z,58.60
2023-05-19T12:54:09.687Z,58.00
2023-05-19T12:56:39.925Z,58.00
2023-05-19T12:59:10.250Z,57.90
2023-05-19T13:01:40.734Z,57.90
2023-05-19T13:04:11.233Z,57.90
2023-05-19T13:06:43.466Z,57.80
2023-05-19T13:09:15.193Z,57.80
2023-05-19T13:11:52.644Z,57.80
2023-05-19T13:14:23.173Z,57.80
2023-05-19T13:16:53.578Z,57.70
2023-05-19T13:19:25.987Z,57.80
2023-05-19T13:21:56.672Z,57.70
2023-05-19T13:24:27.114Z,57.70
2023-05-19T13:26:57.329Z,57.70
2023-05-19T13:29:29.863Z,57.70
2023-05-19T13:32:01.388Z,57.60
2023-05-19T13:34:32.467Z,57.70
2023-05-19T13:37:03.097Z,57.60
2023-05-19T13:39:33.568Z,57.70
2023-05-19T13:42:03.849Z,57.60
2023-05-19T13:44:34.804Z,57.60
2023-05-19T13:47:05.166Z,57.60
2023-05-19T13:49:35.805Z,57.60
2023-05-19T13:52:06.510Z,57.60
2023-05-19T13:54:37.748Z,57.60
2023-05-19T13:57:08.292Z,57.60
2023-05-19T13:59:45.900Z,57.60
2023-05-19T14:02:23.614Z,57.60
2023-05-19T14:04:54.125Z,57.70
2023-05-19T14:07:24.410Z,57.70
2023-05-19T14:09:55.244Z,57.60
2023-05-19T14:12:33.945Z,57.70
2023-05-19T14:15:11.593Z,57.60
2023-05-19T14:17:42.161Z,57.60
2023-05-19T14:20:13.385Z,57.60
2023-05-19T14:22:43.644Z,57.60
2023-05-19T14:25:13.945Z,57.60
2023-05-19T14:27:44.210Z,57.60
2023-05-19T14:30:14.957Z,57.60
2023-05-19T14:32:45.413Z,57.70
2023-05-19T14:35:15.775Z,57.60
2023-05-19T14:37:46.050Z,57.60
2023-05-19T14:40:16.549Z,57.70
2023-05-19T14:42:46.815Z,57.70
2023-05-19T14:45:17.299Z,57.60
2023-05-19T14:47:47.903Z,57.60
2023-05-19T14:50:18.395Z,58.20
2023-05-19T14:52:48.775Z,57.70
2023-05-19T14:55:19.063Z,57.70
2023-05-19T14:57:49.407Z,57.60
2023-05-19T15:00:19.933Z,57.70
2023-05-19T15:02:51.221Z,57.70
2023-05-19T15:05:21.632Z,57.70
2023-05-19T15:07:52.210Z,57.70
2023-05-19T15:10:22.788Z,57.60
2023-05-19T15:12:53.013Z,57.60
2023-05-19T15:15:23.305Z,57.70
2023-05-19T15:17:53.586Z,57.70
2023-05-19T15:20:23.909Z,57.70
2023-05-19T15:22:54.151Z,57.80
2023-05-19T15:25:24.368Z,57.80
2023-05-19T15:27:54.607Z,57.80
2023-05-19T15:30:24.945Z,57.80
2023-05-19T15:32:55.357Z,57.80
2023-05-19T15:35:25.811Z,57.80
2023-05-19T15:37:56.492Z,57.80
2023-05-19T15:40:27.226Z,57.80
2023-05-19T15:42:57.912Z,57.90
2023-05-19T15:45:28.354Z,57.80
2023-05-19T15:47:58.713Z,57.80
2023-05-19T15:50:29.065Z,57.80
2023-05-19T15:52:59.425Z,57.80
2023-05-19T15:55:29.767Z,57.80
2023-05-19T15:58:00.065Z,57.90
2023-05-19T16:00:30.415Z,57.90
2023-05-19T16:03:00.822Z,57.90
2023-05-19T16:05:31.303Z,57.90
2023-05-19T16:08:01.646Z,57.90
2023-05-19T16:10:32.028Z,57.90
2023-05-19T16:13:02.568Z,57.90
2023-05-19T16:15:32.848Z,57.90
2023-05-19T16:18:03.265Z,57.90
2023-05-19T16:20:33.765Z,57.90
2023-05-19T16:23:04.887Z,57.90
2023-05-19T16:25:35.126Z,57.90
2023-05-19T16:28:05.441Z,58.00
2023-05-19T16:30:36.059Z,57.90
2023-05-19T16:33:06.792Z,57.90
2023-05-19T16:35:37.975Z,58.00
2023-05-19T16:38:08.328Z,58.00
2023-05-19T16:40:38.647Z,58.00
2023-05-19T16:43:08.916Z,58.00
2023-05-19T16:45:39.477Z,58.20
2023-05-19T16:48:09.855Z,58.10
2023-05-19T16:50:41.399Z,58.10
2023-05-19T16:53:11.719Z,58.00
2023-05-19T16:55:41.997Z,58.00
2023-05-19T16:58:13.261Z,58.00
2023-05-19T17:00:44.225Z,58.00
2023-05-19T17:03:14.580Z,58.10
2023-05-19T17:05:45.162Z,58.10
2023-05-19T17:08:15.644Z,58.10
2023-05-19T17:10:46.531Z,58.10
2023-05-19T17:13:16.922Z,58.10
2023-05-19T17:15:47.184Z,58.10
2023-05-19T17:18:17.616Z,58.00
2023-05-19T17:20:47.998Z,58.10
2023-05-19T17:23:19.952Z,58.10
2023-05-19T17:25:50.668Z,58.10
2023-05-19T17:28:20.885Z,58.10
2023-05-19T17:30:51.272Z,58.20
2023-05-19T17:33:21.729Z,58.10
2023-05-19T17:35:52.500Z,58.20
2023-05-19T17:38:24.810Z,58.20
2023-05-19T17:40:55.410Z,58.20
2023-05-19T17:43:25.629Z,58.20
2023-05-19T17:45:57.219Z,58.20
2023-05-19T17:48:28.465Z,58.20
2023-05-19T17:50:58.992Z,58.20
2023-05-19T17:53:29.818Z,58.20
2023-05-19T17:56:02.746Z,58.20
2023-05-19T17:58:33.425Z,58.30
2023-05-19T18:01:03.846Z,58.30
2023-05-19T18:03:34.609Z,58.30
2023-05-19T18:06:05.387Z,58.30
2023-05-19T18:08:35.848Z,58.40
2023-05-19T18:11:06.614Z,58.40
2023-05-19T18:13:37.330Z,58.40
2023-05-19T18:16:07.708Z,58.40
2023-05-19T18:18:39.123Z,58.40
2023-05-19T18:21:09.654Z,58.50
2023-05-19T18:23:40.006Z,58.50
2023-05-19T18:26:10.450Z,58.50
2023-05-19T18:28:41.364Z,58.50
2023-05-19T18:31:17.349Z,58.50
2023-05-19T18:33:49.186Z,58.50
2023-05-19T18:36:19.550Z,58.50
2023-05-19T18:38:49.860Z,58.50
2023-05-19T18:41:20.247Z,58.50
2023-05-19T18:43:50.890Z,58.60
2023-05-19T18:46:21.570Z,58.60
2023-05-19T18:48:52.353Z,58.70
2023-05-19T18:51:23.445Z,58.60
2023-05-19T18:53:53.776Z,58.70
2023-05-19T18:56:28.943Z,58.70
2023-05-19T18:58:59.693Z,58.70
2023-05-19T19:01:30.161Z,58.80
2023-05-19T19:04:00.552Z,58.70
2023-05-19T19:06:30.957Z,58.70
2023-05-19T19:09:01.204Z,58.80
2023-05-19T19:11:31.452Z,58.80
2023-05-19T19:14:02.933Z,58.80
2023-05-19T19:16:33.343Z,58.80
2023-05-19T19:19:03.744Z,58.80
2023-05-19T19:21:34.207Z,58.80
2023-05-19T19:24:04.658Z,58.90
2023-05-19T19:26:35.391Z,58.90
2023-05-19T19:29:05.688Z,58.90
2023-05-19T19:31:36.294Z,58.90
2023-05-19T19:34:10.728Z,58.90
2023-05-19T19:36:41.012Z,58.90
2023-05-19T19:39:11.302Z,59.00
2023-05-19T19:41:42.635Z,59.00
2023-05-19T19:44:12.991Z,58.90
2023-05-19T19:46:43.491Z,58.90
2023-05-19T19:49:13.815Z,59.00
2023-05-19T19:51:44.243Z,59.00
2023-05-19T19:54:14.465Z,59.00
2023-05-19T19:56:44.776Z,59.00
2023-05-19T19:59:15.623Z,59.00
2023-05-19T20:01:46.143Z,59.20
2023-05-19T20:04:17.062Z,59.10
2023-05-19T20:06:47.488Z,59.10
2023-05-19T20:09:18.269Z,59.00
2023-05-19T20:11:48.587Z,59.10
2023-05-19T20:14:21.927Z,59.10
2023-05-19T20:16:52.581Z,59.10
2023-05-19T20:19:23.119Z,59.10
2023-05-19T20:21:53.585Z,59.20
2023-05-19T20:24:23.982Z,59.20
2023-05-19T20:26:54.270Z,59.20
2023-05-19T20:29:25.528Z,59.30
2023-05-19T20:31:57.206Z,59.30
2023-05-19T20:34:28.344Z,59.30
2023-05-19T20:36:58.710Z,59.30
2023-05-19T20:39:29.008Z,59.30
2023-05-19T20:41:59.273Z,59.40
2023-05-19T20:44:29.653Z,59.60
2023-05-19T20:47:00.007Z,59.80
2023-05-19T20:49:30.237Z,59.70
2023-05-19T20:52:00.476Z,59.70
2023-05-19T20:54:31.141Z,59.90
2023-05-19T20:57:02.932Z,60.10
2023-05-19T20:59:33.445Z,60.10
2023-05-19T21:02:04.527Z,60.10
2023-05-19T21:04:35.149Z,60.10
2023-05-19T21:07:05.979Z,60.10
2023-05-19T21:09:36.323Z,60.10
2023-05-19T21:12:06.829Z,60.00
2023-05-19T21:14:37.189Z,60.00
2023-05-19T21:17:08.742Z,59.90
2023-05-19T21:19:39.988Z,60.00
2023-05-19T21:22:10.253Z,59.80
2023-05-19T21:24:40.572Z,59.70
2023-05-19T21:27:10.783Z,59.40
2023-05-19T21:29:41.311Z,59.40
2023-05-19T21:32:12.009Z,59.40
2023-05-19T21:34:42.453Z,59.40
2023-05-19T21:37:12.914Z,59.50
2023-05-19T21:39:43.273Z,59.50
2023-05-19T21:42:13.606Z,59.60
2023-05-19T21:44:44.001Z,59.60
2023-05-19T21:47:14.410Z,59.70
2023-05-19T21:49:44.687Z,59.70
2023-05-19T21:52:15.085Z,59.60
2023-05-19T21:54:45.379Z,59.60
2023-05-19T21:57:16.148Z,59.60
2023-05-19T21:59:46.831Z,59.60
2023-05-19T22:02:17.332Z,59.50
2023-05-19T22:04:47.636Z,59.60
2023-05-19T22:07:18.453Z,59.50
2023-05-19T22:09:49.242Z,59.50
2023-05-19T22:12:20.845Z,59.50
2023-05-19T22:14:51.074Z,59.50
2023-05-19T22:17:21.287Z,59.50
2023-05-19T22:19:51.536Z,59.50
2023-05-19T22:22:21.936Z,59.50
2023-05-19T22:24:52.297Z,59.50
2023-05-19T22:27:22.945Z,59.50
2023-05-19T22:29:53.464Z,59.50
2023-05-19T22:32:23.884Z,59.50
2023-05-19T22:34:54.424Z,59.50
2023-05-19T22:37:26.470Z,59.50
2023-05-19T22:39:56.876Z,59.50
2023-05-19T22:42:27.251Z,59.50
2023-05-19T22:44:57.531Z,59.50
2023-05-19T22:47:28.452Z,59.50
2023-05-19T22:49:58.777Z,59.50
2023-05-19T22:52:29.139Z,59.50
2023-05-19T22:54:59.523Z,59.50
2023-05-19T22:57:29.888Z,59.60
2023-05-19T23:00:00.371Z,59.60
2023-05-19T23:02:30.696Z,59.50
2023-05-19T23:05:00.981Z,59.60
2023-05-19T23:07:31.341Z,59.50
2023-05-19T23:10:01.622Z,59.60
2023-05-19T23:12:32.423Z,59.60
2023-05-19T23:15:02.919Z,59.60
2023-05-19T23:17:33.301Z,59.60
2023-05-19T23:20:03.772Z,59.60
2023-05-19T23:22:34.036Z,59.60
2023-05-19T23:25:09.063Z,59.60
2023-05-19T23:27:39.760Z,59.60
2023-05-19T23:30:11.080Z,59.60
2023-05-19T23:32:43.107Z,59.60
2023-05-19T23:35:18.612Z,59.70
2023-05-19T23:37:49.058Z,60.40
2023-05-19T23:40:19.352Z,59.70
2023-05-19T23:42:49.892Z,59.70
2023-05-19T23:45:20.128Z,59.70
2023-05-19T23:47:50.543Z,59.70
2023-05-19T23:50:20.944Z,59.70
2023-05-19T23:52:51.531Z,59.70
2023-05-19T23:55:22.056Z,59.70
2023-05-19T23:57:52.584Z,59.80
